Time;durP1;ratioP1;P1;durP2;ratioP2;P2;SDS_P1;SDS_P2;PMS_P1;PMS_P2;Temp;Humidity;BMP_temperature;BMP_pressure;BME280_temperature;BME280_humidity;BME280_pressure;Samples;Min_cycle;Max_cycle;Signal;HPM_P1;HPM_P2
2023/08/09 00:02:15;;;;;;;3.25;3.00;;;;;;;14.00;100.00;101121.94;6192502;23;20079;-86
2023/08/09 00:04:41;;;;;;;4.88;2.83;;;;;;;14.04;100.00;101112.56;6191947;23;20473;-86
2023/08/09 00:07:06;;;;;;;3.22;2.92;;;;;;;13.93;100.00;101099.66;6192117;23;20004;-86
2023/08/09 00:09:31;;;;;;;5.05;3.30;;;;;;;13.98;100.00;101103.44;6218710;23;20426;-87
2023/08/09 00:11:57;;;;;;;4.45;3.10;;;;;;;13.96;100.00;101105.47;6192159;23;20378;-86
2023/08/09 00:14:22;;;;;;;3.53;3.00;;;;;;;14.07;100.00;101125.53;6218502;23;20004;-86
2023/08/09 00:16:47;;;;;;;4.47;3.20;;;;;;;14.08;100.00;101124.56;6218812;23;20072;-86
2023/08/09 00:19:13;;;;;;;3.40;3.10;;;;;;;13.79;100.00;101104.75;6191441;23;20013;-85
2023/08/09 00:21:39;;;;;;;3.50;3.08;;;;;;;13.84;100.00;101110.38;6192031;23;20345;-86
2023/08/09 00:24:04;;;;;;;3.78;3.10;;;;;;;13.95;100.00;101126.97;6218720;23;20011;-86
2023/08/09 00:26:31;;;;;;;3.33;2.97;;;;;;;13.87;100.00;101127.03;6218487;23;20004;-86
2023/08/09 00:28:56;;;;;;;3.88;3.47;;;;;;;13.72;100.00;101114.47;6218703;23;20079;-86
2023/08/09 00:31:22;;;;;;;5.18;3.38;;;;;;;13.74;100.00;101131.09;6219180;23;20011;-86
2023/08/09 00:33:48;;;;;;;4.38;3.22;;;;;;;13.72;100.00;101115.28;6218780;23;20000;-86
2023/08/09 00:36:13;;;;;;;3.80;3.50;;;;;;;13.80;100.00;101108.22;6218637;23;20303;-86
2023/08/09 00:38:39;;;;;;;3.97;3.58;;;;;;;13.81;100.00;101123.25;6218841;23;20000;-86
2023/08/09 00:41:04;;;;;;;3.88;3.55;;;;;;;13.82;100.00;101123.03;6218841;23;20403;-85
2023/08/09 00:43:29;;;;;;;5.00;3.80;;;;;;;13.74;100.00;101106.28;6218720;23;20087;-85
2023/08/09 00:45:55;;;;;;;4.47;3.60;;;;;;;13.94;100.00;101125.31;6191921;23;20046;-87
2023/08/09 00:48:20;;;;;;;4.07;3.70;;;;;;;13.87;100.00;101116.38;6218905;23;20333;-87
2023/08/09 00:50:46;;;;;;;4.25;3.85;;;;;;;13.78;100.00;101115.59;6192135;23;20013;-85
2023/08/09 00:53:12;;;;;;;5.20;4.00;;;;;;;13.73;100.00;101132.09;6218547;23;20491;-86
2023/08/09 00:55:38;;;;;;;4.63;3.55;;;;;;;13.82;100.00;101131.03;6192054;23;20027;-85
2023/08/09 00:58:04;;;;;;;4.22;3.75;;;;;;;13.82;100.00;101115.03;6192694;23;20012;-86
2023/08/09 01:00:29;;;;;;;4.88;4.05;;;;;;;13.81;100.00;101124.06;6218505;23;20075;-86
2023/08/09 01:02:55;;;;;;;4.68;4.03;;;;;;;13.91;100.00;101123.81;6218240;23;20007;-85
2023/08/09 01:05:26;;;;;;;4.95;3.75;;;;;;;13.88;100.00;101123.34;6218133;23;20012;-86
2023/08/09 01:08:00;;;;;;;4.40;4.00;;;;;;;13.67;100.00;101114.16;6191844;23;20000;-86
2023/08/09 01:10:37;;;;;;;5.38;3.90;;;;;;;13.63;100.00;101131.50;6218050;23;20066;-86
2023/08/09 01:13:07;;;;;;;5.13;4.05;;;;;;;13.68;100.00;101137.94;6191730;23;20330;-86
2023/08/09 01:15:33;;;;;;;5.22;4.00;;;;;;;13.72;100.00;101130.44;6218077;23;20012;-85
2023/08/09 01:18:00;;;;;;;5.30;4.10;;;;;;;13.74;100.00;101127.59;6217837;23;20009;-85
2023/08/09 01:20:26;;;;;;;4.97;4.10;;;;;;;13.71;100.00;101126.09;6218291;23;20005;-86
2023/08/09 01:23:15;;;;;;;4.90;3.90;;;;;;;13.81;100.00;101126.72;6191576;23;20008;-87
2023/08/09 01:25:40;;;;;;;5.68;3.95;;;;;;;13.72;100.00;101114.47;6217695;23;20008;-87
2023/08/09 01:28:06;;;;;;;4.60;4.20;;;;;;;13.65;100.00;101126.81;6191767;23;20009;-87
2023/08/09 01:30:31;;;;;;;5.50;4.22;;;;;;;13.71;100.00;101155.41;6217386;23;20023;-87
2023/08/09 01:32:57;;;;;;;4.57;4.18;;;;;;;13.48;100.00;101129.56;6218311;23;20009;-86
2023/08/09 01:35:26;;;;;;;4.88;4.20;;;;;;;13.64;100.00;101154.47;6191271;23;20046;-86
2023/08/09 01:38:03;;;;;;;6.22;4.18;;;;;;;13.53;100.00;101137.03;6217949;23;20001;-85
2023/08/09 01:40:30;;;;;;;6.00;4.13;;;;;;;13.62;100.00;101140.50;6191380;23;20090;-86
2023/08/09 01:42:57;;;;;;;4.25;3.85;;;;;;;13.57;100.00;101125.84;6191356;23;20012;-87
2023/08/09 01:45:22;;;;;;;4.90;4.07;;;;;;;13.73;100.00;101148.09;6191295;23;20446;-86
2023/08/09 01:47:48;;;;;;;4.20;3.80;;;;;;;13.58;100.00;101145.34;6217688;23;20005;-86
2023/08/09 01:50:19;;;;;;;5.60;4.00;;;;;;;13.59;100.00;101157.66;6218214;23;20039;-86
2023/08/09 01:52:45;;;;;;;4.30;3.90;;;;;;;13.69;100.00;101162.75;6217825;23;20015;-86
2023/08/09 01:55:14;;;;;;;7.05;3.75;;;;;;;13.59;100.00;101155.00;6217694;23;20008;-86
2023/08/09 01:57:39;;;;;;;5.00;3.78;;;;;;;13.55;100.00;101146.53;6191039;23;20001;-86
2023/08/09 02:00:08;;;;;;;5.40;3.83;;;;;;;13.54;100.00;101133.34;6191469;23;20035;-86
2023/08/09 02:02:33;;;;;;;4.97;3.88;;;;;;;13.65;100.00;101161.44;6191097;23;20004;-86
2023/08/09 02:04:59;;;;;;;6.15;4.03;;;;;;;13.58;100.00;101162.13;6217559;23;20004;-85
2023/08/09 02:07:24;;;;;;;4.28;3.88;;;;;;;13.51;100.00;101160.38;6217960;23;20008;-85
2023/08/09 02:09:49;;;;;;;3.95;3.60;;;;;;;13.44;100.00;101154.84;6217903;23;20009;-86
2023/08/09 02:12:15;;;;;;;5.20;3.92;;;;;;;13.35;100.00;101161.19;6191235;23;20009;-85
2023/08/09 02:14:40;;;;;;;5.43;4.05;;;;;;;13.44;100.00;101170.84;6217683;23;20426;-86
2023/08/09 02:17:05;;;;;;;5.18;3.70;;;;;;;13.39;100.00;101163.38;6218043;23;20000;-86
2023/08/09 02:19:31;;;;;;;4.38;3.88;;;;;;;13.36;100.00;101174.34;6217798;23;20084;-86
2023/08/09 02:21:56;;;;;;;5.63;3.63;;;;;;;13.27;100.00;101154.09;6218000;23;20432;-86
2023/08/09 02:24:23;;;;;;;4.15;3.50;;;;;;;13.36;100.00;101168.22;6192260;23;20008;-87
2023/08/09 02:26:48;;;;;;;3.70;3.40;;;;;;;13.39;100.00;101173.19;6219487;23;20031;-85
2023/08/09 02:29:13;;;;;;;5.15;3.45;;;;;;;13.44;100.00;101181.50;6225396;23;20141;-86
2023/08/09 02:31:40;;;;;;;5.55;3.80;;;;;;;13.34;100.00;101167.53;6231947;23;20016;-86
2023/08/09 02:34:06;;;;;;;5.50;3.40;;;;;;;13.34;100.00;101175.53;6227715;23;20001;-85
2023/08/09 02:36:31;;;;;;;4.13;3.50;;;;;;;13.36;100.00;101184.19;6235825;23;20036;-86
2023/08/09 02:38:56;;;;;;;4.28;3.88;;;;;;;13.30;100.00;101175.88;6239527;23;20012;-86
2023/08/09 02:41:22;;;;;;;5.40;3.65;;;;;;;13.34;100.00;101187.03;6237615;23;20015;-86
2023/08/09 02:43:47;;;;;;;5.38;3.70;;;;;;;13.29;100.00;101192.03;6211942;23;20056;-86
2023/08/09 02:46:13;;;;;;;4.20;3.80;;;;;;;13.29;100.00;101189.38;6210587;23;20008;-87
2023/08/09 02:48:39;;;;;;;4.25;3.70;;;;;;;13.19;100.00;101194.88;6234220;23;20016;-87
2023/08/09 02:51:05;;;;;;;5.32;3.00;;;;;;;13.11;100.00;101209.03;6221616;23;20012;-87
2023/08/09 02:53:55;;;;;;;304.55;9.82;;;;;;;12.95;100.00;101214.38;6191774;23;19997;-86
2023/08/09 02:56:21;;;;;;;94.28;5.25;;;;;;;12.90;100.00;101206.91;6218974;23;20005;-86
2023/08/09 02:58:47;;;;;;;4.75;3.78;;;;;;;12.90;100.00;101199.78;6217886;23;20015;-87
2023/08/09 03:01:12;;;;;;;26.75;4.65;;;;;;;12.83;100.00;101205.94;6218313;23;20008;-86
2023/08/09 03:03:37;;;;;;;9.38;3.70;;;;;;;12.98;100.00;101209.56;6217266;23;20005;-88
2023/08/09 03:06:04;;;;;;;5.68;3.58;;;;;;;13.02;100.00;101205.56;6217673;23;20016;-86
2023/08/09 03:08:31;;;;;;;12.77;3.70;;;;;;;12.89;100.00;101199.94;6217665;23;20465;-86
2023/08/09 03:10:56;;;;;;;5.82;4.10;;;;;;;12.86;100.00;101216.22;6217931;23;20004;-87
2023/08/09 03:13:22;;;;;;;12.95;4.30;;;;;;;12.89;100.00;101218.56;6191208;23;20111;-86
2023/08/09 03:15:47;;;;;;;7.05;4.32;;;;;;;13.02;100.00;101234.84;6217596;23;20433;-85
2023/08/09 03:18:13;;;;;;;12.05;3.97;;;;;;;12.85;100.00;101204.75;6217268;23;20012;-87
2023/08/09 03:20:38;;;;;;;12.13;4.22;;;;;;;12.75;100.00;101188.13;6217923;23;20008;-86
2023/08/09 03:23:04;;;;;;;21.05;3.92;;;;;;;12.94;100.00;101224.22;6217478;23;20087;-87
2023/08/09 03:25:31;;;;;;;36.25;3.88;;;;;;;12.86;100.00;101227.72;6217225;23;20000;-87
2023/08/09 03:27:56;;;;;;;8.75;3.50;;;;;;;12.91;100.00;101225.38;6217703;23;20012;-86
2023/08/09 03:30:22;;;;;;;10.02;3.60;;;;;;;12.76;100.00;101190.63;6217215;23;20009;-86
2023/08/09 03:32:48;;;;;;;8.68;3.40;;;;;;;12.97;100.00;101223.88;6190863;23;20000;-86
2023/08/09 03:35:14;;;;;;;12.23;3.67;;;;;;;12.77;100.00;101213.56;6190583;23;20068;-86
2023/08/09 03:37:41;;;;;;;10.25;3.33;;;;;;;12.77;100.00;101229.53;6217439;23;20004;-86
2023/08/09 03:40:12;;;;;;;7.45;3.50;;;;;;;12.77;100.00;101234.03;6217994;23;20008;-86
2023/08/09 03:42:37;;;;;;;7.28;3.58;;;;;;;12.80;100.00;101254.16;6217419;23;20000;-86
2023/08/09 03:45:02;;;;;;;15.00;3.72;;;;;;;12.78;100.00;101252.50;6190417;23;20047;-86
2023/08/09 03:47:28;;;;;;;11.35;3.70;;;;;;;12.77;100.00;101240.19;6217378;23;20338;-86
2023/08/09 03:49:53;;;;;;;11.25;3.65;;;;;;;12.66;100.00;101237.84;6216401;23;20007;-87
2023/08/09 03:52:19;;;;;;;5.40;3.53;;;;;;;12.59;100.00;101237.66;6217260;23;20005;-86
2023/08/09 03:54:45;;;;;;;12.70;3.58;;;;;;;12.49;100.00;101235.16;6218927;23;20008;-85
2023/08/09 03:57:11;;;;;;;3.67;3.30;;;;;;;12.62;100.00;101242.66;6218894;23;20005;-87
2023/08/09 03:59:37;;;;;;;10.55;3.47;;;;;;;12.71;100.00;101266.63;6192219;23;20004;-87
2023/08/09 04:02:02;;;;;;;3.75;3.38;;;;;;;12.65;100.00;101268.13;6219136;23;20070;-86
2023/08/09 04:04:28;;;;;;;6.68;3.30;;;;;;;12.60;100.00;101270.44;6192090;23;20093;-87
2023/08/09 04:06:53;;;;;;;4.97;3.00;;;;;;;12.39;100.00;101263.75;6218927;23;20000;-87
2023/08/09 04:09:18;;;;;;;9.48;2.90;;;;;;;12.39;100.00;101258.44;6192239;23;20012;-87
2023/08/09 04:11:44;;;;;;;4.25;3.17;;;;;;;12.53;100.00;101272.91;6219135;23;20004;-87
2023/08/09 04:14:09;;;;;;;3.97;2.90;;;;;;;12.58;100.00;101272.44;6191261;23;20380;-86
2023/08/09 04:16:34;;;;;;;7.85;3.92;;;;;;;12.39;100.00;101258.44;6218961;23;20035;-87
2023/08/09 04:19:00;;;;;;;23.83;3.20;;;;;;;12.28;100.00;101256.91;6218673;23;20016;-87
2023/08/09 04:21:26;;;;;;;26.48;3.88;;;;;;;12.27;100.00;101254.41;6192302;23;20000;-87
2023/08/09 04:23:51;;;;;;;47.33;4.60;;;;;;;12.17;100.00;101250.06;6219077;23;20071;-88
2023/08/09 04:26:16;;;;;;;23.33;3.30;;;;;;;12.30;100.00;101264.72;6191951;23;20472;-88
2023/08/09 04:28:42;;;;;;;20.75;4.18;;;;;;;12.39;100.00;101277.06;6218685;23;20023;-88
2023/08/09 04:31:07;;;;;;;6.68;3.00;;;;;;;12.33;100.00;101265.22;6218746;23;20028;-87
2023/08/09 04:33:33;;;;;;;5.88;3.00;;;;;;;12.46;100.00;101275.41;6218842;23;20032;-88
2023/08/09 04:35:59;;;;;;;8.07;3.00;;;;;;;12.53;100.00;101296.03;6192038;23;20004;-87
2023/08/09 04:38:24;;;;;;;3.60;3.30;;;;;;;12.42;100.00;101279.38;6219036;23;20079;-87
2023/08/09 04:40:49;;;;;;;6.72;3.20;;;;;;;12.46;100.00;101275.41;6218902;23;20011;-87
2023/08/09 04:43:15;;;;;;;7.65;3.20;;;;;;;12.38;100.00;101259.41;6219193;23;20001;-86
2023/08/09 04:45:40;;;;;;;5.25;3.75;;;;;;;12.56;100.00;101298.34;6218690;23;20059;-87
2023/08/09 04:48:08;;;;;;;15.20;4.70;;;;;;;12.45;100.00;101284.38;6218803;23;20031;-86
2023/08/09 04:50:34;;;;;;;7.50;4.25;;;;;;;12.53;100.00;101301.34;6218372;23;20012;-86
2023/08/09 04:52:59;;;;;;;11.18;4.53;;;;;;;12.53;100.00;101299.50;6218300;23;20303;-87
2023/08/09 04:55:25;;;;;;;7.38;4.30;;;;;;;12.56;100.00;101306.34;6218577;23;20011;-87
2023/08/09 04:57:51;;;;;;;5.75;4.80;;;;;;;12.57;100.00;101292.03;6218980;23;20075;-88
2023/08/09 05:00:16;;;;;;;5.72;4.60;;;;;;;12.57;100.00;101286.72;6218713;23;20011;-88
2023/08/09 05:02:42;;;;;;;8.50;4.95;;;;;;;12.69;100.00;101305.88;6218571;23;20005;-89
2023/08/09 05:05:09;;;;;;;7.30;5.40;;;;;;;12.70;100.00;101311.03;6218055;23;20001;-88
2023/08/09 05:07:35;;;;;;;6.13;5.53;;;;;;;12.80;100.00;101308.22;6218375;23;20543;-88
2023/08/09 05:10:02;;;;;;;8.27;6.45;;;;;;;12.71;100.00;101299.38;6218918;23;20008;-88
2023/08/09 05:12:28;;;;;;;7.53;6.50;;;;;;;12.85;100.00;101321.03;6191923;23;20083;-89
2023/08/09 05:14:53;;;;;;;7.85;6.43;;;;;;;12.92;100.00;101314.03;6192283;23;20016;-88
2023/08/09 05:17:18;;;;;;;9.63;6.80;;;;;;;12.97;100.00;101311.72;6191494;23;20001;-87
2023/08/09 05:19:44;;;;;;;9.18;7.15;;;;;;;12.95;100.00;101294.25;6218200;23;20418;-87
2023/08/09 05:22:09;;;;;;;11.20;8.23;;;;;;;13.12;100.00;101316.38;6218123;23;20012;-87
2023/08/09 05:24:35;;;;;;;12.40;8.25;;;;;;;13.13;100.00;101312.72;6218605;23;20007;-87
2023/08/09 05:27:00;;;;;;;14.35;9.90;;;;;;;13.10;100.00;101310.38;6218568;23;20430;-87
2023/08/09 05:29:25;;;;;;;15.75;9.80;;;;;;;13.14;100.00;101319.72;6191992;23;20012;-88
2023/08/09 05:31:51;;;;;;;15.07;9.82;;;;;;;13.10;100.00;101318.38;6218836;23;20008;-87
2023/08/09 05:34:16;;;;;;;15.05;10.13;;;;;;;13.04;100.00;101320.69;6217861;23;20005;-86
2023/08/09 05:36:43;;;;;;;16.40;9.70;;;;;;;13.06;100.00;101312.53;6191221;23;20333;-87
2023/08/09 05:39:08;;;;;;;13.07;9.82;;;;;;;13.14;100.00;101325.03;6191481;23;20005;-87
2023/08/09 05:41:34;;;;;;;16.27;10.35;;;;;;;13.21;100.00;101338.53;6218151;23;20083;-87
2023/08/09 05:43:59;;;;;;;15.02;10.57;;;;;;;13.15;100.00;101329.34;6218115;23;20529;-87
2023/08/09 05:46:25;;;;;;;16.20;11.30;;;;;;;13.16;100.00;101318.53;6191442;23;20009;-86
2023/08/09 05:48:50;;;;;;;17.45;12.57;;;;;;;13.34;100.00;101335.34;6217878;23;20036;-87
2023/08/09 05:51:15;;;;;;;18.42;12.52;;;;;;;13.36;100.00;101344.81;6218178;23;20000;-87
2023/08/09 05:53:42;;;;;;;20.27;13.35;;;;;;;13.21;100.00;101331.34;6217815;23;20028;-87
2023/08/09 05:56:07;;;;;;;21.23;14.88;;;;;;;13.37;100.00;101351.00;6217924;23;20000;-86
2023/08/09 05:58:32;;;;;;;23.23;14.77;;;;;;;13.41;100.00;101352.31;6218044;23;20084;-87
2023/08/09 06:00:58;;;;;;;21.08;15.57;;;;;;;13.28;100.00;101334.19;6191042;23;20036;-87
2023/08/09 06:03:23;;;;;;;23.38;15.52;;;;;;;13.26;100.00;101334.34;6217833;23;20321;-88
2023/08/09 06:05:48;;;;;;;20.15;15.38;;;;;;;13.30;100.00;101335.69;6217864;23;20016;-88
2023/08/09 06:08:14;;;;;;;22.45;16.52;;;;;;;13.33;100.00;101353.16;6191420;23;20095;-88
2023/08/09 06:10:39;;;;;;;23.48;16.92;;;;;;;13.30;100.00;101341.00;6217680;23;20090;-88
2023/08/09 06:13:05;;;;;;;24.20;18.38;;;;;;;13.27;100.00;101351.19;6218079;23;20091;-88
2023/08/09 06:15:30;;;;;;;24.20;17.95;;;;;;;13.23;100.00;101345.31;6217627;23;20009;-88
2023/08/09 06:17:56;;;;;;;24.55;18.27;;;;;;;13.32;100.00;101359.47;6217340;23;20005;-87
2023/08/09 06:20:21;;;;;;;25.75;18.85;;;;;;;13.31;100.00;101366.66;6217755;23;20436;-87
2023/08/09 06:22:47;;;;;;;26.15;19.48;;;;;;;13.32;100.00;101376.28;6190797;23;20425;-87
2023/08/09 06:25:12;;;;;;;27.33;20.02;;;;;;;13.25;100.00;101375.31;6190907;23;20049;-88
2023/08/09 06:27:38;;;;;;;29.48;20.80;;;;;;;13.33;100.00;101387.78;6217663;23;20000;-88
2023/08/09 06:30:04;;;;;;;28.50;20.08;;;;;;;13.43;100.00;101411.59;6217701;23;20005;-88
2023/08/09 06:32:29;;;;;;;28.80;19.83;;;;;;;13.39;100.00;101391.63;6217675;23;20462;-89
2023/08/09 06:34:55;;;;;;;28.13;20.45;;;;;;;13.38;100.00;101392.63;6190987;23;20013;-88
2023/08/09 06:37:22;;;;;;;30.27;21.83;;;;;;;13.58;100.00;101417.94;6217855;23;20008;-92
2023/08/09 06:39:48;;;;;;;32.17;22.13;;;;;;;13.52;100.00;101397.28;6191269;23;20023;-88
2023/08/09 06:42:14;;;;;;;31.20;20.67;;;;;;;13.52;100.00;101405.28;6217828;23;20337;-88
2023/08/09 06:44:39;;;;;;;31.30;21.70;;;;;;;13.58;100.00;101411.78;6217782;23;20075;-89
2023/08/09 06:47:06;;;;;;;28.52;20.27;;;;;;;13.55;100.00;101410.28;6217793;23;20009;-87
2023/08/09 06:49:32;;;;;;;29.67;20.40;;;;;;;13.63;100.00;101405.97;6190923;23;20382;-89
2023/08/09 06:52:00;;;;;;;29.50;19.13;;;;;;;13.62;100.00;101417.63;6191289;23;20015;-90
2023/08/09 06:54:26;;;;;;;29.20;19.10;;;;;;;13.59;100.00;101402.78;6191457;23;20087;-88
2023/08/09 06:56:52;;;;;;;30.10;20.33;;;;;;;13.65;100.00;101422.59;6191399;23;20036;-88
2023/08/09 06:59:17;;;;;;;27.67;19.48;;;;;;;13.75;100.00;101422.41;6191255;23;20067;-88
2023/08/09 07:01:48;;;;;;;28.15;19.60;;;;;;;13.67;100.00;101407.28;6217258;23;20088;-87
2023/08/09 07:04:14;;;;;;;27.08;19.67;;;;;;;13.82;100.00;101429.59;6217732;23;20330;-87
2023/08/09 07:06:40;;;;;;;26.25;19.80;;;;;;;13.87;100.00;101431.75;6217580;23;20023;-88
2023/08/09 07:09:11;;;;;;;27.02;19.50;;;;;;;13.89;100.00;101419.09;6191190;23;20008;-93
2023/08/09 07:11:36;;;;;;;25.95;18.77;;;;;;;13.85;100.00;101407.94;6191261;23;20118;-88
2023/08/09 07:14:02;;;;;;;28.15;20.52;;;;;;;13.89;100.00;101404.91;6190825;23;20009;-88
2023/08/09 07:16:27;;;;;;;26.67;20.35;;;;;;;14.16;100.00;101437.53;6190393;23;20414;-88
2023/08/09 07:18:52;;;;;;;26.95;20.38;;;;;;;14.17;100.00;101436.53;6190300;23;20047;-87
2023/08/09 07:21:18;;;;;;;27.42;19.63;;;;;;;14.15;100.00;101430.53;6217485;23;20115;-87
2023/08/09 07:23:43;;;;;;;24.80;19.05;;;;;;;14.09;100.00;101419.56;6217433;23;20333;-87
2023/08/09 07:26:08;;;;;;;25.30;18.33;;;;;;;14.12;100.00;101421.88;6217098;23;20004;-88
2023/08/09 07:28:34;;;;;;;25.70;20.45;;;;;;;14.25;100.00;101439.16;6218118;23;20485;-88
2023/08/09 07:30:59;;;;;;;23.85;18.83;;;;;;;14.37;100.00;101447.66;6219920;23;20373;-87
2023/08/09 07:33:25;;;;;;;24.35;18.85;;;;;;;14.28;100.00;101432.66;6192508;23;20019;-87
2023/08/09 07:35:50;;;;;;;23.70;18.40;;;;;;;14.23;100.00;101431.34;6218509;23;20418;-86
2023/08/09 07:38:16;;;;;;;25.88;18.42;;;;;;;14.37;100.00;101451.13;6218959;23;20004;-87
2023/08/09 07:40:42;;;;;;;24.73;18.77;;;;;;;14.44;100.00;101458.44;6219231;23;20027;-87
2023/08/09 07:43:07;;;;;;;22.25;17.30;;;;;;;14.41;100.00;101443.59;6192389;23;20414;-87
2023/08/09 07:45:33;;;;;;;24.58;19.08;;;;;;;14.65;100.00;101468.53;6219160;23;20032;-87
2023/08/09 07:47:58;;;;;;;23.60;18.20;;;;;;;14.64;100.00;101465.06;6219246;23;20011;-87
2023/08/09 07:50:25;;;;;;;22.58;17.02;;;;;;;14.64;100.00;101462.38;6221443;23;20008;-89
2023/08/09 07:52:50;;;;;;;24.13;17.88;;;;;;;14.65;100.00;101460.53;6222720;23;20015;-88
2023/08/09 07:55:38;;;;;;;22.88;17.48;;;;;;;14.84;100.00;101472.66;6224606;23;20004;-95
2023/08/09 07:58:04;;;;;;;23.67;18.02;;;;;;;14.69;100.00;101450.38;6193737;23;20004;-88
2023/08/09 08:00:30;;;;;;;21.88;17.75;;;;;;;14.77;100.00;101463.69;6192971;23;20005;-90
2023/08/09 08:02:55;;;;;;;24.05;17.65;;;;;;;14.85;100.00;101477.00;6220171;23;20047;-89
2023/08/09 08:05:21;;;;;;;23.35;16.98;;;;;;;14.90;100.00;101463.16;6193924;23;20039;-90
2023/08/09 08:07:46;;;;;;;23.75;17.45;;;;;;;15.09;100.00;101483.22;6219405;23;20012;-88
2023/08/09 08:10:16;;;;;;;23.80;16.90;;;;;;;15.17;100.00;101475.19;6219684;23;20328;-88
2023/08/09 08:12:44;;;;;;;19.77;15.15;;;;;;;15.31;100.00;101492.25;6221164;23;20016;-87
2023/08/09 08:15:09;;;;;;;22.42;15.65;;;;;;;15.26;100.00;101480.47;6219568;23;20417;-88
2023/08/09 08:17:35;;;;;;;20.63;15.25;;;;;;;15.26;100.00;101473.28;6192625;23;20015;-88
2023/08/09 08:20:01;;;;;;;19.58;14.77;;;;;;;15.45;100.00;101503.22;6192377;23;20012;-88
2023/08/09 08:22:26;;;;;;;19.45;15.00;;;;;;;15.46;100.00;101495.00;6219132;23;20056;-88
2023/08/09 08:24:52;;;;;;;19.50;14.80;;;;;;;15.52;100.00;101487.28;6218780;23;20016;-87
2023/08/09 08:27:18;;;;;;;21.40;15.32;;;;;;;15.54;100.00;101485.28;6219335;23;20004;-88
2023/08/09 08:29:43;;;;;;;19.55;15.05;;;;;;;15.54;100.00;101499.47;6219615;23;20004;-88
2023/08/09 08:32:10;;;;;;;20.10;14.27;;;;;;;15.43;100.00;101492.69;6218969;23;20417;-86
2023/08/09 08:34:36;;;;;;;21.92;14.20;;;;;;;15.44;100.00;101502.38;6218826;23;20075;-87
2023/08/09 08:37:01;;;;;;;24.08;16.13;;;;;;;15.54;100.00;101501.31;6191651;23;20005;-87
2023/08/09 08:39:29;;;;;;;21.77;15.77;;;;;;;15.45;100.00;101496.00;6218752;23;20111;-88
2023/08/09 08:41:56;;;;;;;19.67;14.50;;;;;;;15.48;100.00;101491.34;6219624;23;20000;-87
2023/08/09 08:44:24;;;;;;;21.08;14.18;;;;;;;15.55;100.00;101484.28;6192650;23;20087;-87
2023/08/09 08:46:57;;;;;;;19.65;14.38;;;;;;;15.58;100.00;101486.56;6192062;23;20008;-87
2023/08/09 08:49:30;;;;;;;20.65;14.55;;;;;;;15.66;100.00;101493.69;6192255;23;20007;-88
2023/08/09 08:52:07;;;;;;;18.67;12.43;;;;;;;15.90;100.00;101519.41;6219181;23;20440;-89
2023/08/09 08:54:34;;;;;;;18.65;13.23;;;;;;;15.89;100.00;101499.00;6192149;23;20005;-87
2023/08/09 08:56:59;;;;;;;17.52;11.88;;;;;;;15.92;100.00;101509.41;6191985;23;20000;-88
2023/08/09 08:59:25;;;;;;;14.98;10.68;;;;;;;15.95;100.00;101517.06;6192041;23;20005;-88
2023/08/09 09:01:51;;;;;;;15.13;11.13;;;;;;;15.85;100.00;101500.41;6219214;23;20005;-86
2023/08/09 09:04:17;;;;;;;15.52;10.65;;;;;;;15.91;100.00;101531.78;6218875;23;20082;-89
2023/08/09 09:06:42;;;;;;;16.90;11.02;;;;;;;15.73;100.00;101500.00;6218900;23;20036;-88
2023/08/09 09:09:13;;;;;;;15.63;11.63;;;;;;;15.76;100.00;101509.50;6192092;23;20063;-87
2023/08/09 09:11:40;;;;;;;16.38;10.13;;;;;;;15.92;100.00;101525.44;6192054;23;20004;-89
2023/08/09 09:14:13;;;;;;;16.00;10.63;;;;;;;16.08;100.00;101539.69;6191901;23;20343;-88
2023/08/09 09:16:39;;;;;;;14.65;9.25;;;;;;;16.08;100.00;101526.31;6192008;23;20008;-88
2023/08/09 09:19:05;;;;;;;16.08;9.52;;;;;;;16.07;100.00;101512.09;6191918;23;20021;-88
2023/08/09 09:21:32;;;;;;;15.68;9.55;;;;;;;16.11;100.00;101518.75;6218616;23;20008;-87
2023/08/09 09:24:02;;;;;;;15.55;9.40;;;;;;;16.22;100.00;101536.22;6191942;23;20031;-87
2023/08/09 09:26:28;;;;;;;14.25;9.45;;;;;;;16.26;100.00;101525.97;6218614;23;20000;-88
2023/08/09 09:28:53;;;;;;;13.75;9.38;;;;;;;16.34;100.00;101522.38;6192076;23;20062;-88
2023/08/09 09:31:19;;;;;;;15.75;9.80;;;;;;;16.56;100.00;101533.19;6218752;23;20004;-88
2023/08/09 09:33:51;;;;;;;13.30;9.52;;;;;;;16.78;100.00;101551.00;6218701;23;20013;-88
2023/08/09 09:36:17;;;;;;;13.77;10.17;;;;;;;16.88;100.00;101544.53;6191974;23;20005;-88
2023/08/09 09:38:44;;;;;;;15.90;10.88;;;;;;;16.91;100.00;101538.78;6191987;23;20005;-87
2023/08/09 09:41:11;;;;;;;16.67;11.60;;;;;;;17.00;100.00;101553.75;6218784;23;20001;-87
2023/08/09 09:43:39;;;;;;;16.20;11.60;;;;;;;16.86;100.00;101530.50;6218510;23;20004;-89
2023/08/09 09:46:17;;;;;;;15.02;10.93;;;;;;;17.11;100.00;101548.97;6218638;23;20055;-88
2023/08/09 09:48:47;;;;;;;16.50;11.38;;;;;;;17.19;100.00;101530.94;6191838;23;20430;-87
2023/08/09 09:51:16;;;;;;;15.00;11.25;;;;;;;17.40;100.00;101536.50;6218563;23;20015;-89
2023/08/09 09:53:42;;;;;;;15.30;10.75;;;;;;;17.63;100.00;101538.19;6219422;23;20024;-89
2023/08/09 09:56:07;;;;;;;14.20;11.10;;;;;;;17.63;98.77;101524.78;6192393;23;20060;-89
2023/08/09 09:58:33;;;;;;;14.93;10.32;;;;;;;17.72;99.63;101518.28;6192287;23;20004;-84
2023/08/09 10:00:59;;;;;;;16.23;11.85;;;;;;;17.85;98.72;101545.19;6218658;23;20022;-87
2023/08/09 10:03:30;;;;;;;14.20;11.10;;;;;;;17.58;95.85;101510.06;6218608;23;20005;-87
2023/08/09 10:05:57;;;;;;;15.13;10.55;;;;;;;17.88;98.95;101534.06;6218521;23;20015;-87
2023/08/09 10:08:27;;;;;;;14.50;9.65;;;;;;;17.96;93.95;101534.97;6191668;23;20009;-86
2023/08/09 10:10:55;;;;;;;11.00;8.13;;;;;;;18.09;95.00;101519.00;6219879;23;20016;-86
2023/08/09 10:13:24;;;;;;;11.63;7.82;;;;;;;18.35;90.43;101538.19;6219271;23;20012;-86
2023/08/09 10:16:02;;;;;;;10.30;8.23;;;;;;;18.52;92.22;101539.53;6218479;23;20000;-86
2023/08/09 10:19:08;;;;;;;9.10;7.60;;;;;;;18.76;94.58;101540.06;6219366;23;20414;-87
2023/08/09 10:21:34;;;;;;;9.05;6.88;;;;;;;18.92;89.14;101533.53;6045139;23;20022;-86
2023/08/09 10:24:07;;;;;;;10.13;7.55;;;;;;;18.74;86.29;101514.44;6087206;23;20027;-86
2023/08/09 10:26:34;;;;;;;;;;;;;;;18.85;93.21;101546.09;6162406;23;20176;-85
2023/08/09 10:29:08;;;;;;;12.43;6.88;;;;;;;18.56;89.46;101529.22;6232935;23;19908;-85
2023/08/09 10:31:48;;;;;;;8.82;6.40;;;;;;;18.79;90.66;101550.41;6206853;23;20004;-85
2023/08/09 10:34:17;;;;;;;10.68;7.20;;;;;;;18.94;87.70;101547.59;6231564;23;20000;-86
2023/08/09 10:36:48;;;;;;;9.88;7.15;;;;;;;19.02;87.19;101554.66;6225450;23;20004;-85
2023/08/09 10:39:15;;;;;;;9.50;6.63;;;;;;;19.10;85.80;101556.38;6191054;23;20009;-84
2023/08/09 10:41:56;;;;;;;9.07;8.07;;;;;;;18.91;84.44;101561.41;6217001;23;20012;-85
2023/08/09 10:44:52;;;;;;;8.85;6.90;;;;;;;18.79;87.43;101557.63;6189858;23;20373;-85
2023/08/09 10:47:20;;;;;;;9.63;6.50;;;;;;;18.62;86.92;101560.66;6185280;23;20015;-84
2023/08/09 10:49:48;;;;;;;8.80;6.55;;;;;;;18.73;79.99;101571.84;6216115;23;20005;-85
2023/08/09 10:52:15;;;;;;;10.55;6.32;;;;;;;18.91;80.74;101564.09;6216364;23;20075;-85
2023/08/09 10:54:41;;;;;;;8.48;6.10;;;;;;;19.12;84.12;101561.53;6190641;23;20008;-85
2023/08/09 10:57:10;;;;;;;6.60;5.75;;;;;;;19.14;83.98;101549.56;6189925;23;20319;-82
2023/08/09 10:59:38;;;;;;;6.68;4.95;;;;;;;19.13;77.66;101561.34;6216164;23;20027;-84
2023/08/09 11:02:04;;;;;;;6.00;4.88;;;;;;;19.30;77.57;101556.41;6189570;23;20530;-82
2023/08/09 11:04:29;;;;;;;5.60;5.00;;;;;;;19.42;77.09;101543.22;6216828;23;20016;-83
2023/08/09 11:06:54;;;;;;;5.43;4.75;;;;;;;19.33;76.49;101544.44;6215949;23;20008;-83
2023/08/09 11:09:21;;;;;;;7.57;4.43;;;;;;;19.26;76.14;101548.97;6216062;23;20086;-83
2023/08/09 11:11:49;;;;;;;4.30;3.90;;;;;;;19.35;77.16;101555.84;6188880;23;20410;-83